sensor_id;sensor_type;location;lat;lon;timestamp;P1;durP1;ratioP1;P2;durP2;ratioP2
9306;SDS011;4691;47.612;7.610;2023-01-28T00:01:34;47.30;;;20.92;;
9306;SDS011;4691;47.612;7.610;2023-01-28T00:04:00;48.28;;;20.80;;
9306;SDS011;4691;47.612;7.610;2023-01-28T00:06:25;51.50;;;22.50;;
9306;SDS011;4691;47.612;7.610;2023-01-28T00:08:50;46.92;;;20.63;;
9306;SDS011;4691;47.612;7.610;2023-01-28T00:11:16;46.67;;;21.65;;
9306;SDS011;4691;47.612;7.610;2023-01-28T00:13:41;52.05;;;23.00;;
9306;SDS011;4691;47.612;7.610;2023-01-28T00:16:07;47.45;;;21.98;;
9306;SDS011;4691;47.612;7.610;2023-01-28T00:18:36;50.97;;;22.35;;
9306;SDS011;4691;47.612;7.610;2023-01-28T00:21:14;48.92;;;21.48;;
9306;SDS011;4691;47.612;7.610;2023-01-28T00:23:40;49.30;;;20.48;;
9306;SDS011;4691;47.612;7.610;2023-01-28T00:26:12;51.42;;;22.45;;
9306;SDS011;4691;47.612;7.610;2023-01-28T00:28:39;51.42;;;21.80;;
9306;SDS011;4691;47.612;7.610;2023-01-28T00:31:09;53.50;;;23.05;;
9306;SDS011;4691;47.612;7.610;2023-01-28T00:33:38;50.92;;;21.50;;
9306;SDS011;4691;47.612;7.610;2023-01-28T00:36:04;42.45;;;20.52;;
9306;SDS011;4691;47.612;7.610;2023-01-28T00:38:30;46.65;;;20.92;;
9306;SDS011;4691;47.612;7.610;2023-01-28T00:41:05;52.88;;;22.70;;
9306;SDS011;4691;47.612;7.610;2023-01-28T00:43:34;45.90;;;21.00;;
9306;SDS011;4691;47.612;7.610;2023-01-28T00:46:00;48.03;;;21.73;;
9306;SDS011;4691;47.612;7.610;2023-01-28T00:48:25;44.60;;;20.88;;
9306;SDS011;4691;47.612;7.610;2023-01-28T00:50:50;42.53;;;20.58;;
9306;SDS011;4691;47.612;7.610;2023-01-28T00:53:16;48.42;;;21.80;;
9306;SDS011;4691;47.612;7.610;2023-01-28T00:55:41;43.67;;;20.20;;
9306;SDS011;4691;47.612;7.610;2023-01-28T00:58:06;44.72;;;20.08;;
9306;SDS011;4691;47.612;7.610;2023-01-28T01:00:32;46.25;;;19.45;;
9306;SDS011;4691;47.612;7.610;2023-01-28T01:02:57;44.63;;;20.38;;
9306;SDS011;4691;47.612;7.610;2023-01-28T01:05:23;43.47;;;20.70;;
9306;SDS011;4691;47.612;7.610;2023-01-28T01:07:48;42.88;;;19.35;;
9306;SDS011;4691;47.612;7.610;2023-01-28T01:10:15;44.92;;;20.83;;
9306;SDS011;4691;47.612;7.610;2023-01-28T01:12:42;47.42;;;21.25;;
9306;SDS011;4691;47.612;7.610;2023-01-28T01:15:07;49.92;;;22.85;;
9306;SDS011;4691;47.612;7.610;2023-01-28T01:17:35;41.63;;;19.88;;
9306;SDS011;4691;47.612;7.610;2023-01-28T01:20:01;48.13;;;21.88;;
9306;SDS011;4691;47.612;7.610;2023-01-28T01:22:28;49.80;;;22.65;;
9306;SDS011;4691;47.612;7.610;2023-01-28T01:24:55;50.35;;;21.90;;
9306;SDS011;4691;47.612;7.610;2023-01-28T01:27:20;46.30;;;20.15;;
9306;SDS011;4691;47.612;7.610;2023-01-28T01:29:45;50.15;;;23.67;;
9306;SDS011;4691;47.612;7.610;2023-01-28T01:32:11;43.55;;;18.98;;
9306;SDS011;4691;47.612;7.610;2023-01-28T01:34:36;41.80;;;19.35;;
9306;SDS011;4691;47.612;7.610;2023-01-28T01:37:01;42.70;;;19.08;;
9306;SDS011;4691;47.612;7.610;2023-01-28T01:39:27;39.58;;;18.48;;
9306;SDS011;4691;47.612;7.610;2023-01-28T01:41:53;43.38;;;19.10;;
9306;SDS011;4691;47.612;7.610;2023-01-28T01:50:00;41.85;;;17.45;;
9306;SDS011;4691;47.612;7.610;2023-01-28T01:52:32;40.05;;;19.33;;
9306;SDS011;4691;47.612;7.610;2023-01-28T01:55:00;36.22;;;17.67;;
9306;SDS011;4691;47.612;7.610;2023-01-28T01:57:32;37.58;;;17.90;;
9306;SDS011;4691;47.612;7.610;2023-01-28T02:00:00;39.38;;;18.67;;
9306;SDS011;4691;47.612;7.610;2023-01-28T02:02:32;43.35;;;20.13;;
9306;SDS011;4691;47.612;7.610;2023-01-28T02:05:01;40.25;;;19.55;;
9306;SDS011;4691;47.612;7.610;2023-01-28T02:07:27;36.45;;;17.52;;
9306;SDS011;4691;47.612;7.610;2023-01-28T02:09:53;37.83;;;18.20;;
9306;SDS011;4691;47.612;7.610;2023-01-28T02:12:29;34.10;;;17.05;;
9306;SDS011;4691;47.612;7.610;2023-01-28T02:15:06;39.83;;;19.27;;
9306;SDS011;4691;47.612;7.610;2023-01-28T02:17:34;35.25;;;17.17;;
9306;SDS011;4691;47.612;7.610;2023-01-28T02:20:02;42.80;;;19.02;;
9306;SDS011;4691;47.612;7.610;2023-01-28T02:28:22;38.72;;;18.05;;
9306;SDS011;4691;47.612;7.610;2023-01-28T02:33:38;43.45;;;20.52;;
9306;SDS011;4691;47.612;7.610;2023-01-28T02:36:11;38.63;;;18.33;;
9306;SDS011;4691;47.612;7.610;2023-01-28T02:38:47;39.33;;;17.85;;
9306;SDS011;4691;47.612;7.610;2023-01-28T02:41:24;40.88;;;18.40;;
9306;SDS011;4691;47.612;7.610;2023-01-28T02:43:55;35.80;;;17.23;;
9306;SDS011;4691;47.612;7.610;2023-01-28T02:49:18;38.20;;;17.70;;
9306;SDS011;4691;47.612;7.610;2023-01-28T03:00:30;42.78;;;20.48;;
9306;SDS011;4691;47.612;7.610;2023-01-28T03:03:11;40.00;;;19.33;;
9306;SDS011;4691;47.612;7.610;2023-01-28T03:06:02;43.58;;;19.88;;
9306;SDS011;4691;47.612;7.610;2023-01-28T03:08:41;42.90;;;20.25;;
9306;SDS011;4691;47.612;7.610;2023-01-28T03:11:29;44.20;;;20.85;;
9306;SDS011;4691;47.612;7.610;2023-01-28T03:14:16;40.22;;;18.65;;
9306;SDS011;4691;47.612;7.610;2023-01-28T03:19:30;43.95;;;19.45;;
9306;SDS011;4691;47.612;7.610;2023-01-28T03:22:13;41.60;;;19.35;;
9306;SDS011;4691;47.612;7.610;2023-01-28T03:24:59;41.67;;;20.02;;
9306;SDS011;4691;47.612;7.610;2023-01-28T03:27:55;42.17;;;20.10;;
9306;SDS011;4691;47.612;7.610;2023-01-28T03:30:47;43.75;;;19.88;;
9306;SDS011;4691;47.612;7.610;2023-01-28T03:33:36;49.90;;;21.25;;
9306;SDS011;4691;47.612;7.610;2023-01-28T03:36:20;43.92;;;20.33;;
9306;SDS011;4691;47.612;7.610;2023-01-28T03:39:04;43.00;;;20.08;;
9306;SDS011;4691;47.612;7.610;2023-01-28T03:41:29;42.17;;;19.27;;
9306;SDS011;4691;47.612;7.610;2023-01-28T03:43:55;39.55;;;19.02;;
9306;SDS011;4691;47.612;7.610;2023-01-28T03:46:20;42.88;;;19.88;;
9306;SDS011;4691;47.612;7.610;2023-01-28T03:48:46;41.25;;;18.50;;
9306;SDS011;4691;47.612;7.610;2023-01-28T03:51:12;41.28;;;20.45;;
9306;SDS011;4691;47.612;7.610;2023-01-28T03:53:37;41.85;;;20.10;;
9306;SDS011;4691;47.612;7.610;2023-01-28T03:56:04;42.90;;;20.52;;
9306;SDS011;4691;47.612;7.610;2023-01-28T03:58:30;42.85;;;19.92;;
9306;SDS011;4691;47.612;7.610;2023-01-28T04:01:10;47.58;;;21.17;;
9306;SDS011;4691;47.612;7.610;2023-01-28T04:03:36;42.00;;;19.50;;
9306;SDS011;4691;47.612;7.610;2023-01-28T04:06:03;44.15;;;20.95;;
9306;SDS011;4691;47.612;7.610;2023-01-28T04:08:30;44.53;;;21.17;;
9306;SDS011;4691;47.612;7.610;2023-01-28T04:10:55;46.17;;;21.65;;
9306;SDS011;4691;47.612;7.610;2023-01-28T04:13:21;42.47;;;20.15;;
9306;SDS011;4691;47.612;7.610;2023-01-28T04:15:47;43.92;;;20.98;;
9306;SDS011;4691;47.612;7.610;2023-01-28T04:18:12;45.50;;;20.95;;
9306;SDS011;4691;47.612;7.610;2023-01-28T04:20:38;45.10;;;21.58;;
9306;SDS011;4691;47.612;7.610;2023-01-28T04:23:04;39.42;;;18.42;;
9306;SDS011;4691;47.612;7.610;2023-01-28T04:25:31;42.17;;;19.90;;
9306;SDS011;4691;47.612;7.610;2023-01-28T04:27:57;38.47;;;18.63;;
9306;SDS011;4691;47.612;7.610;2023-01-28T04:30:22;43.30;;;20.90;;
9306;SDS011;4691;47.612;7.610;2023-01-28T04:32:48;40.05;;;18.83;;
9306;SDS011;4691;47.612;7.610;2023-01-28T04:35:16;46.75;;;22.00;;
9306;SDS011;4691;47.612;7.610;2023-01-28T04:37:41;38.97;;;18.83;;
9306;SDS011;4691;47.612;7.610;2023-01-28T04:40:08;43.60;;;20.88;;
9306;SDS011;4691;47.612;7.610;2023-01-28T04:42:34;45.47;;;21.05;;
9306;SDS011;4691;47.612;7.610;2023-01-28T04:45:00;46.28;;;22.33;;
9306;SDS011;4691;47.612;7.610;2023-01-28T04:47:25;46.13;;;21.50;;
9306;SDS011;4691;47.612;7.610;2023-01-28T04:49:51;50.28;;;22.27;;
9306;SDS011;4691;47.612;7.610;2023-01-28T04:52:16;41.53;;;20.30;;
9306;SDS011;4691;47.612;7.610;2023-01-28T04:54:41;44.80;;;21.77;;
9306;SDS011;4691;47.612;7.610;2023-01-28T04:57:07;41.53;;;18.90;;
9306;SDS011;4691;47.612;7.610;2023-01-28T04:59:32;44.25;;;20.25;;
9306;SDS011;4691;47.612;7.610;2023-01-28T05:01:58;41.33;;;20.58;;
9306;SDS011;4691;47.612;7.610;2023-01-28T05:04:23;41.25;;;19.90;;
9306;SDS011;4691;47.612;7.610;2023-01-28T05:06:49;41.90;;;19.45;;
9306;SDS011;4691;47.612;7.610;2023-01-28T05:09:14;76.53;;;29.63;;
9306;SDS011;4691;47.612;7.610;2023-01-28T05:11:40;41.22;;;19.42;;
9306;SDS011;4691;47.612;7.610;2023-01-28T05:14:05;39.50;;;18.83;;
9306;SDS011;4691;47.612;7.610;2023-01-28T05:16:30;40.17;;;19.05;;
9306;SDS011;4691;47.612;7.610;2023-01-28T05:18:56;44.22;;;20.58;;
9306;SDS011;4691;47.612;7.610;2023-01-28T05:21:21;34.80;;;17.85;;
9306;SDS011;4691;47.612;7.610;2023-01-28T05:23:47;40.38;;;18.67;;
9306;SDS011;4691;47.612;7.610;2023-01-28T05:26:12;40.55;;;18.92;;
9306;SDS011;4691;47.612;7.610;2023-01-28T05:28:37;40.60;;;19.48;;
9306;SDS011;4691;47.612;7.610;2023-01-28T05:31:06;39.42;;;18.42;;
9306;SDS011;4691;47.612;7.610;2023-01-28T05:33:31;40.70;;;20.08;;
9306;SDS011;4691;47.612;7.610;2023-01-28T05:36:00;42.10;;;20.75;;
9306;SDS011;4691;47.612;7.610;2023-01-28T05:38:25;40.42;;;19.75;;
9306;SDS011;4691;47.612;7.610;2023-01-28T05:40:51;38.08;;;18.88;;
9306;SDS011;4691;47.612;7.610;2023-01-28T05:43:16;37.95;;;18.73;;
9306;SDS011;4691;47.612;7.610;2023-01-28T05:45:41;41.00;;;18.90;;
9306;SDS011;4691;47.612;7.610;2023-01-28T05:48:06;41.42;;;20.10;;
9306;SDS011;4691;47.612;7.610;2023-01-28T05:50:32;45.13;;;20.90;;
9306;SDS011;4691;47.612;7.610;2023-01-28T05:52:57;41.67;;;20.25;;
9306;SDS011;4691;47.612;7.610;2023-01-28T05:55:22;38.25;;;18.90;;
9306;SDS011;4691;47.612;7.610;2023-01-28T05:57:48;42.70;;;20.33;;
9306;SDS011;4691;47.612;7.610;2023-01-28T06:00:14;38.33;;;18.73;;
9306;SDS011;4691;47.612;7.610;2023-01-28T06:02:41;46.00;;;18.83;;
9306;SDS011;4691;47.612;7.610;2023-01-28T06:05:06;38.58;;;18.95;;
9306;SDS011;4691;47.612;7.610;2023-01-28T06:07:32;41.72;;;19.52;;
9306;SDS011;4691;47.612;7.610;2023-01-28T06:09:57;37.05;;;18.67;;
9306;SDS011;4691;47.612;7.610;2023-01-28T06:12:23;39.70;;;20.40;;
9306;SDS011;4691;47.612;7.610;2023-01-28T06:14:48;42.78;;;19.55;;
9306;SDS011;4691;47.612;7.610;2023-01-28T06:17:14;37.92;;;19.55;;
9306;SDS011;4691;47.612;7.610;2023-01-28T06:19:39;41.35;;;19.73;;
9306;SDS011;4691;47.612;7.610;2023-01-28T06:22:04;45.95;;;21.45;;
9306;SDS011;4691;47.612;7.610;2023-01-28T06:24:30;43.53;;;20.67;;
9306;SDS011;4691;47.612;7.610;2023-01-28T06:26:55;42.17;;;20.58;;
9306;SDS011;4691;47.612;7.610;2023-01-28T06:29:20;40.58;;;20.45;;
9306;SDS011;4691;47.612;7.610;2023-01-28T06:31:46;46.97;;;21.58;;
9306;SDS011;4691;47.612;7.610;2023-01-28T06:34:11;47.65;;;22.30;;
9306;SDS011;4691;47.612;7.610;2023-01-28T06:36:37;53.03;;;24.05;;
9306;SDS011;4691;47.612;7.610;2023-01-28T06:39:02;50.45;;;22.52;;
9306;SDS011;4691;47.612;7.610;2023-01-28T06:41:28;41.97;;;21.60;;
9306;SDS011;4691;47.612;7.610;2023-01-28T06:43:54;36.95;;;18.73;;
9306;SDS011;4691;47.612;7.610;2023-01-28T06:46:19;38.88;;;20.30;;
9306;SDS011;4691;47.612;7.610;2023-01-28T06:48:44;46.28;;;21.75;;
9306;SDS011;4691;47.612;7.610;2023-01-28T06:51:09;40.70;;;20.13;;
9306;SDS011;4691;47.612;7.610;2023-01-28T06:53:35;40.65;;;20.10;;
9306;SDS011;4691;47.612;7.610;2023-01-28T06:56:00;44.10;;;21.23;;
9306;SDS011;4691;47.612;7.610;2023-01-28T06:58:26;54.55;;;23.52;;
9306;SDS011;4691;47.612;7.610;2023-01-28T07:00:52;79.75;;;32.35;;
9306;SDS011;4691;47.612;7.610;2023-01-28T07:03:17;48.33;;;21.48;;
9306;SDS011;4691;47.612;7.610;2023-01-28T07:05:42;46.22;;;22.65;;
9306;SDS011;4691;47.612;7.610;2023-01-28T07:08:08;64.57;;;28.02;;
9306;SDS011;4691;47.612;7.610;2023-01-28T07:10:33;51.88;;;23.80;;
9306;SDS011;4691;47.612;7.610;2023-01-28T07:12:58;42.90;;;21.67;;
9306;SDS011;4691;47.612;7.610;2023-01-28T07:15:24;39.70;;;20.10;;
9306;SDS011;4691;47.612;7.610;2023-01-28T07:17:49;43.28;;;20.40;;
9306;SDS011;4691;47.612;7.610;2023-01-28T07:20:15;44.40;;;20.38;;
9306;SDS011;4691;47.612;7.610;2023-01-28T07:22:43;40.20;;;19.92;;
9306;SDS011;4691;47.612;7.610;2023-01-28T07:25:10;36.97;;;18.70;;
9306;SDS011;4691;47.612;7.610;2023-01-28T07:27:36;36.63;;;19.10;;
9306;SDS011;4691;47.612;7.610;2023-01-28T07:30:02;36.58;;;19.40;;
9306;SDS011;4691;47.612;7.610;2023-01-28T07:32:28;38.78;;;19.02;;
9306;SDS011;4691;47.612;7.610;2023-01-28T07:34:54;39.20;;;20.25;;
9306;SDS011;4691;47.612;7.610;2023-01-28T07:37:19;40.35;;;19.33;;
9306;SDS011;4691;47.612;7.610;2023-01-28T07:39:45;46.40;;;22.58;;
9306;SDS011;4691;47.612;7.610;2023-01-28T07:42:10;68.25;;;29.67;;
9306;SDS011;4691;47.612;7.610;2023-01-28T07:44:35;47.38;;;22.58;;
9306;SDS011;4691;47.612;7.610;2023-01-28T07:47:01;45.30;;;22.33;;
9306;SDS011;4691;47.612;7.610;2023-01-28T07:49:27;36.58;;;19.10;;
9306;SDS011;4691;47.612;7.610;2023-01-28T07:51:52;39.83;;;18.98;;
9306;SDS011;4691;47.612;7.610;2023-01-28T07:54:18;38.53;;;19.70;;
9306;SDS011;4691;47.612;7.610;2023-01-28T07:56:43;35.97;;;18.50;;
9306;SDS011;4691;47.612;7.610;2023-01-28T07:59:08;41.15;;;20.23;;
9306;SDS011;4691;47.612;7.610;2023-01-28T08:01:33;40.20;;;19.00;;
9306;SDS011;4691;47.612;7.610;2023-01-28T08:03:59;36.33;;;18.98;;
9306;SDS011;4691;47.612;7.610;2023-01-28T08:06:24;36.65;;;19.33;;
9306;SDS011;4691;47.612;7.610;2023-01-28T08:08:49;38.80;;;19.15;;
9306;SDS011;4691;47.612;7.610;2023-01-28T08:11:15;33.63;;;17.08;;
9306;SDS011;4691;47.612;7.610;2023-01-28T08:13:40;40.92;;;20.42;;
9306;SDS011;4691;47.612;7.610;2023-01-28T08:16:06;32.95;;;18.30;;
9306;SDS011;4691;47.612;7.610;2023-01-28T08:18:31;37.97;;;17.70;;
9306;SDS011;4691;47.612;7.610;2023-01-28T08:20:57;37.03;;;18.80;;
9306;SDS011;4691;47.612;7.610;2023-01-28T08:23:23;33.00;;;17.40;;
9306;SDS011;4691;47.612;7.610;2023-01-28T08:25:51;40.53;;;20.33;;
9306;SDS011;4691;47.612;7.610;2023-01-28T08:28:17;45.42;;;22.10;;
9306;SDS011;4691;47.612;7.610;2023-01-28T08:30:43;42.65;;;20.55;;
9306;SDS011;4691;47.612;7.610;2023-01-28T08:33:09;37.20;;;18.02;;
9306;SDS011;4691;47.612;7.610;2023-01-28T08:35:36;37.80;;;19.60;;
9306;SDS011;4691;47.612;7.610;2023-01-28T08:38:02;36.95;;;17.83;;
9306;SDS011;4691;47.612;7.610;2023-01-28T08:40:28;40.10;;;18.83;;
9306;SDS011;4691;47.612;7.610;2023-01-28T08:42:54;34.58;;;17.33;;
9306;SDS011;4691;47.612;7.610;2023-01-28T08:45:20;33.80;;;17.10;;
9306;SDS011;4691;47.612;7.610;2023-01-28T08:47:50;32.60;;;17.60;;
9306;SDS011;4691;47.612;7.610;2023-01-28T08:50:16;32.05;;;17.42;;
9306;SDS011;4691;47.612;7.610;2023-01-28T08:52:42;30.60;;;16.48;;
9306;SDS011;4691;47.612;7.610;2023-01-28T08:55:08;29.65;;;16.33;;
9306;SDS011;4691;47.612;7.610;2023-01-28T08:57:36;30.10;;;16.98;;
9306;SDS011;4691;47.612;7.610;2023-01-28T09:00:01;33.35;;;17.40;;
9306;SDS011;4691;47.612;7.610;2023-01-28T09:02:26;36.55;;;16.77;;
9306;SDS011;4691;47.612;7.610;2023-01-28T09:04:52;35.20;;;17.73;;
9306;SDS011;4691;47.612;7.610;2023-01-28T09:07:17;35.38;;;17.10;;
9306;SDS011;4691;47.612;7.610;2023-01-28T09:09:43;36.53;;;16.73;;
9306;SDS011;4691;47.612;7.610;2023-01-28T09:12:08;34.28;;;18.38;;
9306;SDS011;4691;47.612;7.610;2023-01-28T09:14:35;33.58;;;17.73;;
9306;SDS011;4691;47.612;7.610;2023-01-28T09:17:00;33.15;;;16.38;;
9306;SDS011;4691;47.612;7.610;2023-01-28T09:19:25;38.67;;;16.63;;
9306;SDS011;4691;47.612;7.610;2023-01-28T09:21:51;33.65;;;17.00;;
9306;SDS011;4691;47.612;7.610;2023-01-28T09:24:16;33.95;;;17.13;;
9306;SDS011;4691;47.612;7.610;2023-01-28T09:26:42;32.72;;;15.77;;
9306;SDS011;4691;47.612;7.610;2023-01-28T09:29:08;34.40;;;17.75;;
9306;SDS011;4691;47.612;7.610;2023-01-28T09:31:33;30.55;;;16.60;;
9306;SDS011;4691;47.612;7.610;2023-01-28T09:33:59;33.38;;;16.85;;
9306;SDS011;4691;47.612;7.610;2023-01-28T09:36:24;30.73;;;17.25;;
9306;SDS011;4691;47.612;7.610;2023-01-28T09:38:49;28.25;;;15.63;;
9306;SDS011;4691;47.612;7.610;2023-01-28T09:41:26;33.88;;;17.23;;
9306;SDS011;4691;47.612;7.610;2023-01-28T09:44:04;32.67;;;18.30;;
9306;SDS011;4691;47.612;7.610;2023-01-28T09:46:38;28.40;;;14.80;;
9306;SDS011;4691;47.612;7.610;2023-01-28T09:49:20;32.13;;;16.50;;
9306;SDS011;4691;47.612;7.610;2023-01-28T09:52:02;32.35;;;15.38;;
9306;SDS011;4691;47.612;7.610;2023-01-28T09:54:37;27.67;;;15.10;;
9306;SDS011;4691;47.612;7.610;2023-01-28T09:57:21;30.42;;;14.18;;
9306;SDS011;4691;47.612;7.610;2023-01-28T09:59:48;30.92;;;14.57;;
9306;SDS011;4691;47.612;7.610;2023-01-28T10:05:16;22.50;;;11.85;;
9306;SDS011;4691;47.612;7.610;2023-01-28T10:10:40;31.73;;;12.40;;
9306;SDS011;4691;47.612;7.610;2023-01-28T10:16:05;21.80;;;11.02;;
9306;SDS011;4691;47.612;7.610;2023-01-28T10:23:52;24.63;;;11.20;;
9306;SDS011;4691;47.612;7.610;2023-01-28T10:26:23;25.40;;;11.90;;
9306;SDS011;4691;47.612;7.610;2023-01-28T10:28:53;18.70;;;10.43;;
9306;SDS011;4691;47.612;7.610;2023-01-28T10:31:21;25.37;;;10.97;;
9306;SDS011;4691;47.612;7.610;2023-01-28T10:33:48;21.58;;;12.18;;
9306;SDS011;4691;47.612;7.610;2023-01-28T10:36:13;23.70;;;11.98;;
9306;SDS011;4691;47.612;7.610;2023-01-28T10:38:40;20.00;;;10.55;;
9306;SDS011;4691;47.612;7.610;2023-01-28T10:41:08;22.25;;;12.10;;
9306;SDS011;4691;47.612;7.610;2023-01-28T10:43:36;26.30;;;13.27;;
9306;SDS011;4691;47.612;7.610;2023-01-28T10:49:17;20.90;;;12.02;;
9306;SDS011;4691;47.612;7.610;2023-01-28T10:51:46;36.60;;;19.15;;
9306;SDS011;4691;47.612;7.610;2023-01-28T10:54:19;22.02;;;11.25;;
9306;SDS011;4691;47.612;7.610;2023-01-28T10:56:49;22.17;;;12.25;;
9306;SDS011;4691;47.612;7.610;2023-01-28T10:59:19;35.78;;;17.00;;
9306;SDS011;4691;47.612;7.610;2023-01-28T11:01:53;40.20;;;21.83;;
9306;SDS011;4691;47.612;7.610;2023-01-28T11:04:23;37.22;;;19.45;;
9306;SDS011;4691;47.612;7.610;2023-01-28T11:09:29;23.58;;;12.60;;
9306;SDS011;4691;47.612;7.610;2023-01-28T11:11:57;26.52;;;15.15;;
9306;SDS011;4691;47.612;7.610;2023-01-28T11:14:26;23.52;;;13.40;;
9306;SDS011;4691;47.612;7.610;2023-01-28T11:16:52;25.60;;;15.57;;
9306;SDS011;4691;47.612;7.610;2023-01-28T11:19:21;24.75;;;13.18;;
9306;SDS011;4691;47.612;7.610;2023-01-28T11:21:53;20.70;;;10.27;;
9306;SDS011;4691;47.612;7.610;2023-01-28T11:24:21;19.75;;;10.55;;
9306;SDS011;4691;47.612;7.610;2023-01-28T11:26:52;21.33;;;11.70;;
9306;SDS011;4691;47.612;7.610;2023-01-28T11:29:26;20.58;;;11.27;;
9306;SDS011;4691;47.612;7.610;2023-01-28T11:31:52;20.48;;;11.38;;
9306;SDS011;4691;47.612;7.610;2023-01-28T11:34:18;22.33;;;12.07;;
9306;SDS011;4691;47.612;7.610;2023-01-28T11:36:54;23.63;;;14.15;;
9306;SDS011;4691;47.612;7.610;2023-01-28T11:39:27;22.75;;;12.45;;
9306;SDS011;4691;47.612;7.610;2023-01-28T11:41:53;24.08;;;12.25;;
9306;SDS011;4691;47.612;7.610;2023-01-28T11:44:27;30.17;;;14.23;;
9306;SDS011;4691;47.612;7.610;2023-01-28T11:49:54;24.13;;;12.82;;
9306;SDS011;4691;47.612;7.610;2023-01-28T12:03:18;20.90;;;11.23;;
9306;SDS011;4691;47.612;7.610;2023-01-28T12:06:10;17.35;;;9.95;;
9306;SDS011;4691;47.612;7.610;2023-01-28T12:14:36;19.25;;;9.18;;
9306;SDS011;4691;47.612;7.610;2023-01-28T12:17:22;18.40;;;10.18;;
9306;SDS011;4691;47.612;7.610;2023-01-28T12:20:21;17.42;;;10.07;;
9306;SDS011;4691;47.612;7.610;2023-01-28T12:23:07;19.92;;;9.50;;
9306;SDS011;4691;47.612;7.610;2023-01-28T12:36:48;17.83;;;10.77;;
9306;SDS011;4691;47.612;7.610;2023-01-28T12:39:42;17.95;;;10.15;;
9306;SDS011;4691;47.612;7.610;2023-01-28T12:42:24;21.55;;;11.38;;
9306;SDS011;4691;47.612;7.610;2023-01-28T12:45:42;14.60;;;8.80;;
9306;SDS011;4691;47.612;7.610;2023-01-28T12:48:02;19.25;;;10.63;;
9306;SDS011;4691;47.612;7.610;2023-01-28T12:50:36;22.73;;;11.02;;
9306;SDS011;4691;47.612;7.610;2023-01-28T12:53:29;25.40;;;13.82;;
9306;SDS011;4691;47.612;7.610;2023-01-28T12:58:49;13.32;;;7.80;;
9306;SDS011;4691;47.612;7.610;2023-01-28T13:01:24;25.73;;;13.13;;
9306;SDS011;4691;47.612;7.610;2023-01-28T13:06:36;100.85;;;27.50;;
9306;SDS011;4691;47.612;7.610;2023-01-28T13:09:10;63.80;;;18.60;;
9306;SDS011;4691;47.612;7.610;2023-01-28T13:11:45;84.10;;;23.00;;
9306;SDS011;4691;47.612;7.610;2023-01-28T13:14:13;119.15;;;32.30;;
9306;SDS011;4691;47.612;7.610;2023-01-28T13:16:39;103.20;;;29.23;;
9306;SDS011;4691;47.612;7.610;2023-01-28T13:19:06;80.20;;;27.98;;
9306;SDS011;4691;47.612;7.610;2023-01-28T13:21:44;32.13;;;16.30;;
9306;SDS011;4691;47.612;7.610;2023-01-28T13:31:43;14.40;;;7.50;;
9306;SDS011;4691;47.612;7.610;2023-01-28T13:37:03;11.30;;;6.88;;
9306;SDS011;4691;47.612;7.610;2023-01-28T13:39:44;11.93;;;7.05;;
9306;SDS011;4691;47.612;7.610;2023-01-28T13:42:26;14.10;;;8.25;;
9306;SDS011;4691;47.612;7.610;2023-01-28T13:47:30;14.35;;;7.95;;
9306;SDS011;4691;47.612;7.610;2023-01-28T13:50:02;15.10;;;8.23;;
9306;SDS011;4691;47.612;7.610;2023-01-28T13:52:44;16.65;;;9.50;;
9306;SDS011;4691;47.612;7.610;2023-01-28T13:55:35;16.55;;;9.50;;
9306;SDS011;4691;47.612;7.610;2023-01-28T14:01:06;19.05;;;10.60;;
9306;SDS011;4691;47.612;7.610;2023-01-28T14:06:02;23.13;;;12.20;;
9306;SDS011;4691;47.612;7.610;2023-01-28T14:17:05;16.17;;;10.00;;
9306;SDS011;4691;47.612;7.610;2023-01-28T14:19:41;18.60;;;10.35;;
9306;SDS011;4691;47.612;7.610;2023-01-28T14:22:08;22.27;;;11.02;;
9306;SDS011;4691;47.612;7.610;2023-01-28T14:24:38;15.20;;;9.02;;
9306;SDS011;4691;47.612;7.610;2023-01-28T14:27:08;14.93;;;8.15;;
9306;SDS011;4691;47.612;7.610;2023-01-28T14:29:46;16.98;;;9.23;;
9306;SDS011;4691;47.612;7.610;2023-01-28T14:32:25;17.52;;;10.27;;
9306;SDS011;4691;47.612;7.610;2023-01-28T14:34:53;15.18;;;8.93;;
9306;SDS011;4691;47.612;7.610;2023-01-28T14:37:21;14.32;;;9.20;;
9306;SDS011;4691;47.612;7.610;2023-01-28T14:39:56;13.55;;;8.35;;
9306;SDS011;4691;47.612;7.610;2023-01-28T14:42:24;14.40;;;8.15;;
9306;SDS011;4691;47.612;7.610;2023-01-28T14:47:40;15.60;;;8.68;;
9306;SDS011;4691;47.612;7.610;2023-01-28T14:50:35;18.10;;;10.73;;
9306;SDS011;4691;47.612;7.610;2023-01-28T14:58:34;18.73;;;10.65;;
9306;SDS011;4691;47.612;7.610;2023-01-28T15:01:02;16.42;;;9.35;;
9306;SDS011;4691;47.612;7.610;2023-01-28T15:03:28;19.23;;;9.82;;
9306;SDS011;4691;47.612;7.610;2023-01-28T15:06:02;20.25;;;10.45;;
9306;SDS011;4691;47.612;7.610;2023-01-28T15:08:37;22.58;;;12.02;;
9306;SDS011;4691;47.612;7.610;2023-01-28T15:11:03;21.75;;;11.30;;
9306;SDS011;4691;47.612;7.610;2023-01-28T15:13:33;22.80;;;11.85;;
9306;SDS011;4691;47.612;7.610;2023-01-28T15:16:02;22.20;;;11.18;;
9306;SDS011;4691;47.612;7.610;2023-01-28T15:18:33;18.13;;;10.40;;
9306;SDS011;4691;47.612;7.610;2023-01-28T15:21:00;20.45;;;11.05;;
9306;SDS011;4691;47.612;7.610;2023-01-28T15:23:33;17.65;;;9.50;;
9306;SDS011;4691;47.612;7.610;2023-01-28T15:26:03;17.15;;;10.20;;
9306;SDS011;4691;47.612;7.610;2023-01-28T15:28:31;17.52;;;9.70;;
9306;SDS011;4691;47.612;7.610;2023-01-28T15:30:58;23.05;;;11.23;;
9306;SDS011;4691;47.612;7.610;2023-01-28T15:33:23;20.80;;;10.48;;
9306;SDS011;4691;47.612;7.610;2023-01-28T15:35:50;24.02;;;10.80;;
9306;SDS011;4691;47.612;7.610;2023-01-28T15:38:20;20.27;;;9.65;;
9306;SDS011;4691;47.612;7.610;2023-01-28T15:40:48;19.42;;;9.52;;
9306;SDS011;4691;47.612;7.610;2023-01-28T15:43:30;17.67;;;8.85;;
9306;SDS011;4691;47.612;7.610;2023-01-28T15:45:58;16.20;;;8.93;;
9306;SDS011;4691;47.612;7.610;2023-01-28T15:48:25;14.90;;;8.05;;
9306;SDS011;4691;47.612;7.610;2023-01-28T15:51:27;18.05;;;10.00;;
9306;SDS011;4691;47.612;7.610;2023-01-28T15:53:50;18.63;;;9.10;;
9306;SDS011;4691;47.612;7.610;2023-01-28T15:56:23;20.08;;;10.50;;
9306;SDS011;4691;47.612;7.610;2023-01-28T15:58:53;19.98;;;9.63;;
9306;SDS011;4691;47.612;7.610;2023-01-28T16:01:20;17.90;;;9.02;;
9306;SDS011;4691;47.612;7.610;2023-01-28T16:03:46;16.42;;;8.40;;
9306;SDS011;4691;47.612;7.610;2023-01-28T16:06:27;18.88;;;9.52;;
9306;SDS011;4691;47.612;7.610;2023-01-28T16:08:57;14.05;;;7.93;;
9306;SDS011;4691;47.612;7.610;2023-01-28T16:11:35;14.38;;;8.15;;
9306;SDS011;4691;47.612;7.610;2023-01-28T16:14:15;14.75;;;8.05;;
9306;SDS011;4691;47.612;7.610;2023-01-28T16:16:45;17.30;;;9.05;;
9306;SDS011;4691;47.612;7.610;2023-01-28T16:19:14;13.80;;;7.50;;
9306;SDS011;4691;47.612;7.610;2023-01-28T16:21:55;12.57;;;7.35;;
9306;SDS011;4691;47.612;7.610;2023-01-28T16:24:24;14.60;;;7.68;;
9306;SDS011;4691;47.612;7.610;2023-01-28T16:27:34;13.10;;;7.45;;
9306;SDS011;4691;47.612;7.610;2023-01-28T16:29:43;15.20;;;8.75;;
9306;SDS011;4691;47.612;7.610;2023-01-28T16:35:00;15.43;;;8.32;;
9306;SDS011;4691;47.612;7.610;2023-01-28T16:37:27;18.55;;;8.75;;
9306;SDS011;4691;47.612;7.610;2023-01-28T16:39:53;16.33;;;8.25;;
9306;SDS011;4691;47.612;7.610;2023-01-28T16:42:18;15.68;;;7.97;;
9306;SDS011;4691;47.612;7.610;2023-01-28T16:44:43;21.00;;;9.35;;
9306;SDS011;4691;47.612;7.610;2023-01-28T16:47:12;16.35;;;9.27;;
9306;SDS011;4691;47.612;7.610;2023-01-28T16:49:37;16.50;;;8.20;;
9306;SDS011;4691;47.612;7.610;2023-01-28T16:52:03;16.75;;;8.38;;
9306;SDS011;4691;47.612;7.610;2023-01-28T16:54:29;16.08;;;9.10;;
9306;SDS011;4691;47.612;7.610;2023-01-28T16:56:55;19.85;;;9.77;;
9306;SDS011;4691;47.612;7.610;2023-01-28T16:59:24;19.48;;;10.00;;
9306;SDS011;4691;47.612;7.610;2023-01-28T17:01:49;15.15;;;8.65;;
9306;SDS011;4691;47.612;7.610;2023-01-28T17:04:15;18.60;;;9.75;;
9306;SDS011;4691;47.612;7.610;2023-01-28T17:06:41;18.58;;;10.07;;